sensor_id;sensor_type;location;lat;lon;timestamp;pressure;altitude;pressure_sealevel;temperature;humidity
77118;BME280;66072;50.238;19.228;2023-02-05T00:02:01;100116.19;;;-3.85;83.18
77118;BME280;66072;50.238;19.228;2023-02-05T00:04:29;100117.63;;;-3.90;83.34
77118;BME280;66072;50.238;19.228;2023-02-05T00:06:57;100123.39;;;-3.97;83.67
77118;BME280;66072;50.238;19.228;2023-02-05T00:09:25;100124.70;;;-4.02;83.94
77118;BME280;66072;50.238;19.228;2023-02-05T00:11:53;100122.95;;;-4.04;84.12
77118;BME280;66072;50.238;19.228;2023-02-05T00:14:21;100129.77;;;-4.05;83.99
77118;BME280;66072;50.238;19.228;2023-02-05T00:16:49;100129.31;;;-4.08;84.12
77118;BME280;66072;50.238;19.228;2023-02-05T00:19:17;100134.36;;;-4.12;84.04
77118;BME280;66072;50.238;19.228;2023-02-05T00:21:45;100138.42;;;-4.15;84.15
77118;BME280;66072;50.238;19.228;2023-02-05T00:24:14;100140.25;;;-4.15;84.51
77118;BME280;66072;50.238;19.228;2023-02-05T00:26:42;100142.95;;;-4.14;84.67
77118;BME280;66072;50.238;19.228;2023-02-05T00:29:10;100142.68;;;-4.12;85.00
77118;BME280;66072;50.238;19.228;2023-02-05T00:31:37;100143.70;;;-4.08;85.13
77118;BME280;66072;50.238;19.228;2023-02-05T00:34:05;100146.52;;;-4.04;84.86
77118;BME280;66072;50.238;19.228;2023-02-05T00:36:33;100147.14;;;-4.01;85.00
77118;BME280;66072;50.238;19.228;2023-02-05T00:39:01;100146.80;;;-3.97;84.98
77118;BME280;66072;50.238;19.228;2023-02-05T00:41:28;100145.07;;;-3.94;85.00
77118;BME280;66072;50.238;19.228;2023-02-05T00:43:56;100146.36;;;-3.91;85.16
77118;BME280;66072;50.238;19.228;2023-02-05T00:46:24;100146.45;;;-3.88;85.44
77118;BME280;66072;50.238;19.228;2023-02-05T00:48:51;100142.86;;;-3.86;85.08
77118;BME280;66072;50.238;19.228;2023-02-05T00:51:19;100140.43;;;-3.85;85.21
77118;BME280;66072;50.238;19.228;2023-02-05T00:53:47;100139.96;;;-3.83;85.11
77118;BME280;66072;50.238;19.228;2023-02-05T00:56:14;100137.66;;;-3.82;85.20
77118;BME280;66072;50.238;19.228;2023-02-05T00:58:42;100133.87;;;-3.81;85.25
77118;BME280;66072;50.238;19.228;2023-02-05T01:01:10;100129.73;;;-3.80;85.14
77118;BME280;66072;50.238;19.228;2023-02-05T01:03:37;100126.55;;;-3.80;85.24
77118;BME280;66072;50.238;19.228;2023-02-05T01:06:05;100128.86;;;-3.81;85.21
77118;BME280;66072;50.238;19.228;2023-02-05T01:08:33;100129.98;;;-3.82;85.13
77118;BME280;66072;50.238;19.228;2023-02-05T01:11:05;100137.09;;;-3.85;85.05
77118;BME280;66072;50.238;19.228;2023-02-05T01:13:33;100129.87;;;-3.85;85.05
77118;BME280;66072;50.238;19.228;2023-02-05T01:16:02;100127.83;;;-3.86;84.99
77118;BME280;66072;50.238;19.228;2023-02-05T01:18:30;100131.55;;;-3.85;85.33
77118;BME280;66072;50.238;19.228;2023-02-05T01:20:58;100132.92;;;-3.84;85.23
77118;BME280;66072;50.238;19.228;2023-02-05T01:23:26;100136.66;;;-3.82;85.22
77118;BME280;66072;50.238;19.228;2023-02-05T01:25:54;100139.09;;;-3.80;85.01
77118;BME280;66072;50.238;19.228;2023-02-05T01:28:21;100143.35;;;-3.78;85.25
77118;BME280;66072;50.238;19.228;2023-02-05T01:30:49;100147.74;;;-3.76;84.72
77118;BME280;66072;50.238;19.228;2023-02-05T01:33:18;100146.79;;;-3.75;83.42
77118;BME280;66072;50.238;19.228;2023-02-05T01:35:46;100150.39;;;-3.73;83.06
77118;BME280;66072;50.238;19.228;2023-02-05T01:38:13;100156.61;;;-3.72;81.88
77118;BME280;66072;50.238;19.228;2023-02-05T01:40:41;100151.80;;;-3.71;82.02
77118;BME280;66072;50.238;19.228;2023-02-05T01:43:14;100155.01;;;-3.70;81.50
77118;BME280;66072;50.238;19.228;2023-02-05T01:48:12;100155.19;;;-3.69;81.41
77118;BME280;66072;50.238;19.228;2023-02-05T01:50:53;100155.11;;;-3.72;81.50
77118;BME280;66072;50.238;19.228;2023-02-05T01:53:25;100155.97;;;-3.75;81.52
77118;BME280;66072;50.238;19.228;2023-02-05T01:56:00;100160.04;;;-3.79;80.58
77118;BME280;66072;50.238;19.228;2023-02-05T01:58:31;100156.17;;;-3.84;80.16
77118;BME280;66072;50.238;19.228;2023-02-05T02:01:00;100160.13;;;-3.89;80.29
77118;BME280;66072;50.238;19.228;2023-02-05T02:03:30;100159.48;;;-3.97;80.45
77118;BME280;66072;50.238;19.228;2023-02-05T02:05:58;100160.83;;;-4.06;80.57
77118;BME280;66072;50.238;19.228;2023-02-05T02:08:26;100161.80;;;-4.15;80.77
77118;BME280;66072;50.238;19.228;2023-02-05T02:10:55;100154.36;;;-4.25;80.83
77118;BME280;66072;50.238;19.228;2023-02-05T02:13:26;100153.18;;;-4.38;80.95
77118;BME280;66072;50.238;19.228;2023-02-05T02:15:55;100157.03;;;-4.50;81.35
77118;BME280;66072;50.238;19.228;2023-02-05T02:18:25;100157.14;;;-4.64;81.28
77118;BME280;66072;50.238;19.228;2023-02-05T02:26:25;100162.10;;;-5.01;81.80
77118;BME280;66072;50.238;19.228;2023-02-05T02:29:02;100157.42;;;-5.12;82.22
77118;BME280;66072;50.238;19.228;2023-02-05T02:31:52;100158.68;;;-5.22;82.34
77118;BME280;66072;50.238;19.228;2023-02-05T02:34:32;100159.34;;;-5.33;82.45
77118;BME280;66072;50.238;19.228;2023-02-05T02:37:08;100161.54;;;-5.44;82.76
77118;BME280;66072;50.238;19.228;2023-02-05T02:39:56;100167.60;;;-5.53;82.65
77118;BME280;66072;50.238;19.228;2023-02-05T02:42:30;100170.59;;;-5.65;82.98
77118;BME280;66072;50.238;19.228;2023-02-05T02:45:02;100175.89;;;-5.73;83.48
77118;BME280;66072;50.238;19.228;2023-02-05T02:47:35;100176.16;;;-5.78;83.68
77118;BME280;66072;50.238;19.228;2023-02-05T02:50:09;100178.04;;;-5.81;83.92
77118;BME280;66072;50.238;19.228;2023-02-05T02:52:42;100173.69;;;-5.84;84.09
77118;BME280;66072;50.238;19.228;2023-02-05T02:55:12;100175.06;;;-5.87;84.14
77118;BME280;66072;50.238;19.228;2023-02-05T02:57:42;100176.08;;;-5.90;84.34
77118;BME280;66072;50.238;19.228;2023-02-05T03:00:15;100173.65;;;-5.93;84.71
77118;BME280;66072;50.238;19.228;2023-02-05T03:02:46;100170.17;;;-5.96;84.60
77118;BME280;66072;50.238;19.228;2023-02-05T03:05:17;100171.49;;;-6.00;84.90
77118;BME280;66072;50.238;19.228;2023-02-05T03:07:54;100175.56;;;-6.02;85.39
77118;BME280;66072;50.238;19.228;2023-02-05T03:10:48;100175.98;;;-6.04;85.34
77118;BME280;66072;50.238;19.228;2023-02-05T03:13:17;100176.87;;;-6.02;85.84
77118;BME280;66072;50.238;19.228;2023-02-05T03:15:45;100172.92;;;-6.01;85.74
77118;BME280;66072;50.238;19.228;2023-02-05T03:18:13;100176.00;;;-6.00;86.06
77118;BME280;66072;50.238;19.228;2023-02-05T03:20:51;100174.88;;;-5.95;86.36
77118;BME280;66072;50.238;19.228;2023-02-05T03:23:19;100176.39;;;-5.87;86.22
77118;BME280;66072;50.238;19.228;2023-02-05T03:25:47;100182.64;;;-5.81;86.13
77118;BME280;66072;50.238;19.228;2023-02-05T03:28:15;100180.80;;;-5.78;85.93
77118;BME280;66072;50.238;19.228;2023-02-05T03:30:57;100179.52;;;-5.77;86.23
77118;BME280;66072;50.238;19.228;2023-02-05T03:41:33;100178.10;;;-5.86;85.78
77118;BME280;66072;50.238;19.228;2023-02-05T03:44:08;100176.33;;;-5.92;85.70
77118;BME280;66072;50.238;19.228;2023-02-05T03:46:47;100172.81;;;-6.00;85.51
77118;BME280;66072;50.238;19.228;2023-02-05T03:49:33;100170.83;;;-6.07;85.80
77118;BME280;66072;50.238;19.228;2023-02-05T03:52:26;100172.05;;;-6.12;85.84
77118;BME280;66072;50.238;19.228;2023-02-05T03:55:10;100171.61;;;-6.18;85.84
77118;BME280;66072;50.238;19.228;2023-02-05T03:57:51;100168.13;;;-6.25;85.67
77118;BME280;66072;50.238;19.228;2023-02-05T04:00:20;100174.21;;;-6.33;85.77
77118;BME280;66072;50.238;19.228;2023-02-05T04:02:48;100179.14;;;-6.42;85.72
77118;BME280;66072;50.238;19.228;2023-02-05T04:05:16;100176.42;;;-6.50;86.06
77118;BME280;66072;50.238;19.228;2023-02-05T04:07:43;100177.01;;;-6.58;86.11
77118;BME280;66072;50.238;19.228;2023-02-05T04:10:11;100178.67;;;-6.68;86.13
77118;BME280;66072;50.238;19.228;2023-02-05T04:12:38;100177.40;;;-6.80;85.75
77118;BME280;66072;50.238;19.228;2023-02-05T04:15:06;100178.98;;;-6.92;85.73
77118;BME280;66072;50.238;19.228;2023-02-05T04:17:34;100183.09;;;-7.02;85.87
77118;BME280;66072;50.238;19.228;2023-02-05T04:20:03;100184.77;;;-7.12;86.07
77118;BME280;66072;50.238;19.228;2023-02-05T04:22:31;100185.98;;;-7.21;86.33
77118;BME280;66072;50.238;19.228;2023-02-05T04:24:59;100183.02;;;-7.29;86.49
77118;BME280;66072;50.238;19.228;2023-02-05T04:27:27;100182.81;;;-7.37;86.84
77118;BME280;66072;50.238;19.228;2023-02-05T04:29:54;100182.48;;;-7.43;86.89
77118;BME280;66072;50.238;19.228;2023-02-05T04:32:22;100185.82;;;-7.49;86.87
77118;BME280;66072;50.238;19.228;2023-02-05T04:34:50;100183.91;;;-7.53;87.36
77118;BME280;66072;50.238;19.228;2023-02-05T04:37:17;100185.06;;;-7.57;87.59
77118;BME280;66072;50.238;19.228;2023-02-05T04:39:46;100189.20;;;-7.61;87.40
77118;BME280;66072;50.238;19.228;2023-02-05T04:42:13;100190.34;;;-7.64;87.59
77118;BME280;66072;50.238;19.228;2023-02-05T04:44:41;100191.16;;;-7.67;87.86
77118;BME280;66072;50.238;19.228;2023-02-05T04:47:08;100192.63;;;-7.71;87.64
77118;BME280;66072;50.238;19.228;2023-02-05T04:49:36;100191.11;;;-7.74;87.68
77118;BME280;66072;50.238;19.228;2023-02-05T04:52:04;100194.04;;;-7.79;87.73
77118;BME280;66072;50.238;19.228;2023-02-05T04:54:32;100196.39;;;-7.84;87.68
77118;BME280;66072;50.238;19.228;2023-02-05T04:57:00;100196.37;;;-7.90;87.88
77118;BME280;66072;50.238;19.228;2023-02-05T04:59:27;100201.41;;;-7.96;88.32
77118;BME280;66072;50.238;19.228;2023-02-05T05:01:56;100211.30;;;-7.97;89.08
77118;BME280;66072;50.238;19.228;2023-02-05T05:04:24;100215.81;;;-7.96;89.59
77118;BME280;66072;50.238;19.228;2023-02-05T05:06:51;100215.55;;;-7.89;90.26
77118;BME280;66072;50.238;19.228;2023-02-05T05:09:19;100219.84;;;-7.77;90.56
77118;BME280;66072;50.238;19.228;2023-02-05T05:11:47;100222.77;;;-7.72;89.99
77118;BME280;66072;50.238;19.228;2023-02-05T05:14:14;100227.92;;;-7.75;89.17
77118;BME280;66072;50.238;19.228;2023-02-05T05:16:42;100227.63;;;-7.81;88.69
77118;BME280;66072;50.238;19.228;2023-02-05T05:19:10;100230.61;;;-7.87;88.48
77118;BME280;66072;50.238;19.228;2023-02-05T05:21:38;100232.66;;;-7.95;88.36
77118;BME280;66072;50.238;19.228;2023-02-05T05:24:06;100236.85;;;-8.03;88.28
77118;BME280;66072;50.238;19.228;2023-02-05T05:26:34;100241.48;;;-8.09;88.53
77118;BME280;66072;50.238;19.228;2023-02-05T05:29:01;100244.55;;;-8.17;88.32
77118;BME280;66072;50.238;19.228;2023-02-05T05:31:29;100256.56;;;-8.24;88.35
77118;BME280;66072;50.238;19.228;2023-02-05T05:33:57;100260.67;;;-8.30;88.43
77118;BME280;66072;50.238;19.228;2023-02-05T05:36:25;100260.21;;;-8.36;88.34
77118;BME280;66072;50.238;19.228;2023-02-05T05:38:53;100263.46;;;-8.41;88.44
77118;BME280;66072;50.238;19.228;2023-02-05T05:41:23;100262.55;;;-8.45;88.42
77118;BME280;66072;50.238;19.228;2023-02-05T05:43:52;100263.82;;;-8.48;88.54
77118;BME280;66072;50.238;19.228;2023-02-05T05:46:25;100264.64;;;-8.51;88.56
77118;BME280;66072;50.238;19.228;2023-02-05T05:48:55;100267.14;;;-8.54;88.57
77118;BME280;66072;50.238;19.228;2023-02-05T05:51:25;100269.52;;;-8.56;88.58
77118;BME280;66072;50.238;19.228;2023-02-05T05:53:54;100271.04;;;-8.58;88.60
77118;BME280;66072;50.238;19.228;2023-02-05T05:56:22;100275.57;;;-8.60;88.75
77118;BME280;66072;50.238;19.228;2023-02-05T05:58:50;100276.05;;;-8.60;89.01
77118;BME280;66072;50.238;19.228;2023-02-05T06:01:18;100280.25;;;-8.60;89.01
77118;BME280;66072;50.238;19.228;2023-02-05T06:03:46;100281.98;;;-8.59;89.21
77118;BME280;66072;50.238;19.228;2023-02-05T06:06:14;100285.63;;;-8.58;89.27
77118;BME280;66072;50.238;19.228;2023-02-05T06:08:41;100288.67;;;-8.57;89.30
77118;BME280;66072;50.238;19.228;2023-02-05T06:11:09;100289.09;;;-8.56;89.09
77118;BME280;66072;50.238;19.228;2023-02-05T06:13:37;100288.63;;;-8.56;89.27
77118;BME280;66072;50.238;19.228;2023-02-05T06:16:05;100290.10;;;-8.56;89.10
77118;BME280;66072;50.238;19.228;2023-02-05T06:18:33;100294.11;;;-8.55;89.18
77118;BME280;66072;50.238;19.228;2023-02-05T06:21:00;100291.33;;;-8.54;88.96
77118;BME280;66072;50.238;19.228;2023-02-05T06:23:28;100292.49;;;-8.52;89.05
77118;BME280;66072;50.238;19.228;2023-02-05T06:25:56;100293.18;;;-8.48;89.11
77118;BME280;66072;50.238;19.228;2023-02-05T06:28:24;100303.31;;;-8.43;89.09
77118;BME280;66072;50.238;19.228;2023-02-05T06:30:52;100307.79;;;-8.37;89.26
77118;BME280;66072;50.238;19.228;2023-02-05T06:33:19;100313.14;;;-8.27;89.91
77118;BME280;66072;50.238;19.228;2023-02-05T06:35:47;100317.56;;;-8.14;90.22
77118;BME280;66072;50.238;19.228;2023-02-05T06:38:15;100320.58;;;-8.02;90.37
77118;BME280;66072;50.238;19.228;2023-02-05T06:40:42;100325.83;;;-7.88;90.48
77118;BME280;66072;50.238;19.228;2023-02-05T06:43:10;100332.64;;;-7.77;90.30
77118;BME280;66072;50.238;19.228;2023-02-05T06:45:37;100327.87;;;-7.67;90.27
77118;BME280;66072;50.238;19.228;2023-02-05T06:48:05;100320.05;;;-7.58;90.09
77118;BME280;66072;50.238;19.228;2023-02-05T06:50:33;100322.81;;;-7.50;89.83
77118;BME280;66072;50.238;19.228;2023-02-05T06:53:00;100318.10;;;-7.46;89.68
77118;BME280;66072;50.238;19.228;2023-02-05T06:55:28;100318.25;;;-7.37;89.37
77118;BME280;66072;50.238;19.228;2023-02-05T06:57:55;100317.48;;;-7.26;89.09
77118;BME280;66072;50.238;19.228;2023-02-05T07:00:23;100313.46;;;-7.18;89.29
77118;BME280;66072;50.238;19.228;2023-02-05T07:02:51;100316.18;;;-7.07;89.09
77118;BME280;66072;50.238;19.228;2023-02-05T07:05:18;100315.83;;;-6.98;88.83
77118;BME280;66072;50.238;19.228;2023-02-05T07:07:46;100321.64;;;-6.89;88.75
77118;BME280;66072;50.238;19.228;2023-02-05T07:10:16;100321.85;;;-6.82;88.69
77118;BME280;66072;50.238;19.228;2023-02-05T07:12:44;100328.97;;;-6.73;89.07
77118;BME280;66072;50.238;19.228;2023-02-05T07:15:12;100330.35;;;-6.63;88.95
77118;BME280;66072;50.238;19.228;2023-02-05T07:17:39;100341.23;;;-6.52;88.51
77118;BME280;66072;50.238;19.228;2023-02-05T07:20:07;100344.65;;;-6.43;88.15
77118;BME280;66072;50.238;19.228;2023-02-05T07:22:35;100342.71;;;-6.36;87.91
77118;BME280;66072;50.238;19.228;2023-02-05T07:25:03;100342.95;;;-6.25;87.99
77118;BME280;66072;50.238;19.228;2023-02-05T07:27:31;100345.19;;;-6.16;87.62
77118;BME280;66072;50.238;19.228;2023-02-05T07:29:58;100349.10;;;-6.09;87.67
77118;BME280;66072;50.238;19.228;2023-02-05T07:32:26;100354.89;;;-6.00;87.28
77118;BME280;66072;50.238;19.228;2023-02-05T07:34:54;100359.06;;;-5.92;87.06
77118;BME280;66072;50.238;19.228;2023-02-05T07:37:22;100364.73;;;-5.85;86.96
77118;BME280;66072;50.238;19.228;2023-02-05T07:39:49;100369.30;;;-5.77;86.82
77118;BME280;66072;50.238;19.228;2023-02-05T07:42:17;100372.63;;;-5.70;86.50
77118;BME280;66072;50.238;19.228;2023-02-05T07:44:45;100374.27;;;-5.64;86.35
77118;BME280;66072;50.238;19.228;2023-02-05T07:47:13;100376.11;;;-5.57;85.88
77118;BME280;66072;50.238;19.228;2023-02-05T07:49:41;100381.80;;;-5.50;86.01
77118;BME280;66072;50.238;19.228;2023-02-05T07:52:08;100379.78;;;-5.43;85.64
77118;BME280;66072;50.238;19.228;2023-02-05T07:54:36;100382.63;;;-5.40;84.86
77118;BME280;66072;50.238;19.228;2023-02-05T07:57:04;100375.84;;;-5.35;85.21
77118;BME280;66072;50.238;19.228;2023-02-05T07:59:33;100371.73;;;-5.30;85.21
77118;BME280;66072;50.238;19.228;2023-02-05T08:02:01;100372.25;;;-5.26;85.20
77118;BME280;66072;50.238;19.228;2023-02-05T08:04:28;100374.23;;;-5.23;84.92
77118;BME280;66072;50.238;19.228;2023-02-05T08:06:56;100378.58;;;-5.16;84.99
77118;BME280;66072;50.238;19.228;2023-02-05T08:09:24;100375.52;;;-5.07;84.65
77118;BME280;66072;50.238;19.228;2023-02-05T08:11:51;100380.45;;;-4.94;84.14
77118;BME280;66072;50.238;19.228;2023-02-05T08:14:19;100386.27;;;-4.80;83.22
77118;BME280;66072;50.238;19.228;2023-02-05T08:16:47;100387.41;;;-4.62;83.07
77118;BME280;66072;50.238;19.228;2023-02-05T08:19:15;100394.59;;;-4.43;81.85
77118;BME280;66072;50.238;19.228;2023-02-05T08:21:43;100402.96;;;-4.20;82.61
77118;BME280;66072;50.238;19.228;2023-02-05T08:24:11;100412.19;;;-4.00;81.05
77118;BME280;66072;50.238;19.228;2023-02-05T08:26:39;100415.66;;;-3.89;80.13
77118;BME280;66072;50.238;19.228;2023-02-05T08:29:07;100414.59;;;-3.71;80.91
77118;BME280;66072;50.238;19.228;2023-02-05T08:31:36;100423.77;;;-3.56;79.77
77118;BME280;66072;50.238;19.228;2023-02-05T08:34:04;100422.20;;;-3.45;78.51
77118;BME280;66072;50.238;19.228;2023-02-05T08:36:31;100426.90;;;-3.41;77.77
77118;BME280;66072;50.238;19.228;2023-02-05T08:38:59;100426.69;;;-3.38;76.43
77118;BME280;66072;50.238;19.228;2023-02-05T08:41:27;100425.52;;;-3.34;77.20
77118;BME280;66072;50.238;19.228;2023-02-05T08:43:55;100424.64;;;-3.27;77.52
77118;BME280;66072;50.238;19.228;2023-02-05T08:46:23;100424.11;;;-3.27;76.34
77118;BME280;66072;50.238;19.228;2023-02-05T08:48:51;100425.16;;;-3.26;76.72
77118;BME280;66072;50.238;19.228;2023-02-05T08:51:19;100426.48;;;-3.26;75.05
77118;BME280;66072;50.238;19.228;2023-02-05T08:53:48;100427.79;;;-3.31;74.68
77118;BME280;66072;50.238;19.228;2023-02-05T08:56:15;100424.25;;;-3.28;75.72
77118;BME280;66072;50.238;19.228;2023-02-05T08:58:46;100424.61;;;-3.23;75.14
77118;BME280;66072;50.238;19.228;2023-02-05T09:01:15;100432.02;;;-3.22;74.10
77118;BME280;66072;50.238;19.228;2023-02-05T09:03:43;100430.68;;;-3.26;74.07
77118;BME280;66072;50.238;19.228;2023-02-05T09:06:14;100434.52;;;-3.26;74.75
77118;BME280;66072;50.238;19.228;2023-02-05T09:08:42;100430.17;;;-3.22;75.57
77118;BME280;66072;50.238;19.228;2023-02-05T09:11:09;100436.12;;;-3.20;74.84
77118;BME280;66072;50.238;19.228;2023-02-05T09:13:37;100437.79;;;-3.24;74.39
77118;BME280;66072;50.238;19.228;2023-02-05T09:16:09;100441.92;;;-3.26;75.09
77118;BME280;66072;50.238;19.228;2023-02-05T09:18:37;100441.56;;;-3.21;75.36
77118;BME280;66072;50.238;19.228;2023-02-05T09:21:06;100443.95;;;-3.25;74.36
77118;BME280;66072;50.238;19.228;2023-02-05T09:23:35;100447.33;;;-3.28;74.74
77118;BME280;66072;50.238;19.228;2023-02-05T09:26:03;100448.34;;;-3.28;74.07
77118;BME280;66072;50.238;19.228;2023-02-05T09:28:31;100445.35;;;-3.36;73.06
77118;BME280;66072;50.238;19.228;2023-02-05T09:31:05;100445.77;;;-3.34;74.55
77118;BME280;66072;50.238;19.228;2023-02-05T09:33:33;100441.84;;;-3.27;75.38
77118;BME280;66072;50.238;19.228;2023-02-05T09:36:11;100448.70;;;-3.27;74.59
77118;BME280;66072;50.238;19.228;2023-02-05T09:38:39;100451.55;;;-3.27;74.90
77118;BME280;66072;50.238;19.228;2023-02-05T09:49:29;100452.38;;;-3.59;74.66
77118;BME280;66072;50.238;19.228;2023-02-05T09:52:07;100452.99;;;-3.76;74.71
77118;BME280;66072;50.238;19.228;2023-02-05T09:54:41;100460.88;;;-3.84;75.89
77118;BME280;66072;50.238;19.228;2023-02-05T09:57:14;100459.30;;;-3.85;76.37
77118;BME280;66072;50.238;19.228;2023-02-05T09:59:44;100459.38;;;-3.88;76.89
77118;BME280;66072;50.238;19.228;2023-02-05T10:02:35;100461.48;;;-3.89;76.71
77118;BME280;66072;50.238;19.228;2023-02-05T10:05:11;100458.70;;;-3.91;76.79
77118;BME280;66072;50.238;19.228;2023-02-05T10:07:49;100459.52;;;-3.92;77.32
77118;BME280;66072;50.238;19.228;2023-02-05T10:10:46;100455.45;;;-3.89;76.99
77118;BME280;66072;50.238;19.228;2023-02-05T10:32:44;100446.14;;;-3.99;74.77
77118;BME280;66072;50.238;19.228;2023-02-05T10:35:32;100449.81;;;-4.00;74.08
77118;BME280;66072;50.238;19.228;2023-02-05T10:38:14;100440.20;;;-3.94;73.83
77118;BME280;66072;50.238;19.228;2023-02-05T10:40:43;100438.18;;;-3.75;74.70
77118;BME280;66072;50.238;19.228;2023-02-05T10:43:27;100432.56;;;-3.53;72.03
77118;BME280;66072;50.238;19.228;2023-02-05T10:45:56;100436.89;;;-3.22;71.71
77118;BME280;66072;50.238;19.228;2023-02-05T10:48:38;100438.02;;;-3.14;69.89
77118;BME280;66072;50.238;19.228;2023-02-05T10:51:31;100434.80;;;-3.15;68.36
77118;BME280;66072;50.238;19.228;2023-02-05T10:54:01;100433.84;;;-3.14;68.79
77118;BME280;66072;50.238;19.228;2023-02-05T10:56:29;100428.90;;;-3.00;69.08
77118;BME280;66072;50.238;19.228;2023-02-05T10:59:00;100428.48;;;-2.76;68.25
77118;BME280;66072;50.238;19.228;2023-02-05T11:01:32;100422.03;;;-2.47;68.61
77118;BME280;66072;50.238;19.228;2023-02-05T11:04:05;100424.95;;;-2.50;65.68
77118;BME280;66072;50.238;19.228;2023-02-05T11:06:39;100423.90;;;-2.42;66.89
77118;BME280;66072;50.238;19.228;2023-02-05T11:11:55;100415.45;;;-2.21;68.13
77118;BME280;66072;50.238;19.228;2023-02-05T11:14:36;100415.30;;;-1.88;68.43
77118;BME280;66072;50.238;19.228;2023-02-05T11:20:03;100403.73;;;-1.44;67.78
77118;BME280;66072;50.238;19.228;2023-02-05T11:22:34;100407.14;;;-1.32;67.75
77118;BME280;66072;50.238;19.228;2023-02-05T11:25:09;100408.71;;;-1.29;68.88
77118;BME280;66072;50.238;19.228;2023-02-05T11:27:38;100407.81;;;-1.26;67.45
77118;BME280;66072;50.238;19.228;2023-02-05T11:30:23;100406.44;;;-1.43;67.00
77118;BME280;66072;50.238;19.228;2023-02-05T11:33:20;100410.29;;;-1.53;68.44
77118;BME280;66072;50.238;19.228;2023-02-05T11:36:04;100414.55;;;-1.61;69.04
77118;BME280;66072;50.238;19.228;2023-02-05T11:38:45;100415.31;;;-1.92;68.88
77118;BME280;66072;50.238;19.228;2023-02-05T11:41:25;100409.29;;;-2.16;70.53
77118;BME280;66072;50.238;19.228;2023-02-05T11:43:55;100406.70;;;-2.36;71.22
77118;BME280;66072;50.238;19.228;2023-02-05T11:46:26;100404.57;;;-2.71;72.58
77118;BME280;66072;50.238;19.228;2023-02-05T11:48:57;100403.59;;;-2.83;74.26
77118;BME280;66072;50.238;19.228;2023-02-05T11:54:07;100388.98;;;-2.97;75.64
77118;BME280;66072;50.238;19.228;2023-02-05T11:56:40;100392.35;;;-2.88;76.10
77118;BME280;66072;50.238;19.228;2023-02-05T11:59:20;100391.94;;;-2.86;75.21
77118;BME280;66072;50.238;19.228;2023-02-05T12:01:48;100390.10;;;-2.81;75.32
77118;BME280;66072;50.238;19.228;2023-02-05T12:04:18;100394.86;;;-2.80;74.67
77118;BME280;66072;50.238;19.228;2023-02-05T12:06:56;100392.42;;;-2.78;74.21
77118;BME280;66072;50.238;19.228;2023-02-05T12:09:27;100395.74;;;-2.60;74.18
77118;BME280;66072;50.238;19.228;2023-02-05T12:12:26;100391.08;;;-2.37;73.16
77118;BME280;66072;50.238;19.228;2023-02-05T12:20:33;100391.80;;;-2.17;70.80
77118;BME280;66072;50.238;19.228;2023-02-05T12:26:41;100397.05;;;-2.11;71.01
77118;BME280;66072;50.238;19.228;2023-02-05T12:38:16;100394.02;;;-2.30;71.89
77118;BME280;66072;50.238;19.228;2023-02-05T12:41:19;100393.30;;;-2.32;70.63
77118;BME280;66072;50.238;19.228;2023-02-05T12:43:55;100390.55;;;-2.29;70.71
77118;BME280;66072;50.238;19.228;2023-02-05T12:46:41;100392.01;;;-2.16;69.99
77118;BME280;66072;50.238;19.228;2023-02-05T12:58:04;100391.66;;;-0.62;69.34
77118;BME280;66072;50.238;19.228;2023-02-05T13:00:51;100388.96;;;-0.22;68.79
77118;BME280;66072;50.238;19.228;2023-02-05T13:03:38;100389.02;;;0.18;68.19
77118;BME280;66072;50.238;19.228;2023-02-05T13:06:20;100391.20;;;0.57;67.01
77118;BME280;66072;50.238;19.228;2023-02-05T13:09:07;100391.11;;;0.95;65.41
77118;BME280;66072;50.238;19.228;2023-02-05T13:11:43;100398.02;;;1.33;63.73
77118;BME280;66072;50.238;19.228;2023-02-05T13:14:20;100400.89;;;1.72;63.18
77118;BME280;66072;50.238;19.228;2023-02-05T13:16:53;100403.27;;;1.81;60.35
77118;BME280;66072;50.238;19.228;2023-02-05T13:19:36;100400.62;;;1.67;57.04
77118;BME280;66072;50.238;19.228;2023-02-05T13:22:18;100396.54;;;1.49;55.70
77118;BME280;66072;50.238;19.228;2023-02-05T13:24:57;100397.35;;;1.48;55.47
77118;BME280;66072;50.238;19.228;2023-02-05T13:27:33;100396.55;;;1.34;57.71
77118;BME280;66072;50.238;19.228;2023-02-05T13:30:04;100394.25;;;1.22;58.58
77118;BME280;66072;50.238;19.228;2023-02-05T13:32:36;100389.48;;;1.04;57.01
77118;BME280;66072;50.238;19.228;2023-02-05T13:35:06;100391.27;;;0.87;58.94
77118;BME280;66072;50.238;19.228;2023-02-05T13:37:46;100391.34;;;0.76;59.37
77118;BME280;66072;50.238;19.228;2023-02-05T13:40:36;100388.77;;;0.61;59.07
77118;BME280;66072;50.238;19.228;2023-02-05T13:59:37;100397.45;;;0.06;57.51
77118;BME280;66072;50.238;19.228;2023-02-05T14:02:39;100390.61;;;-0.34;58.39
77118;BME280;66072;50.238;19.228;2023-02-05T14:05:09;100389.16;;;-0.21;59.63
77118;BME280;66072;50.238;19.228;2023-02-05T14:07:47;100387.37;;;0.06;59.53
77118;BME280;66072;50.238;19.228;2023-02-05T14:10:25;100384.18;;;0.80;57.84
77118;BME280;66072;50.238;19.228;2023-02-05T14:13:30;100383.86;;;1.99;56.71
77118;BME280;66072;50.238;19.228;2023-02-05T14:23:58;100382.10;;;4.25;53.78
77118;BME280;66072;50.238;19.228;2023-02-05T14:26:48;100388.34;;;4.06;52.87
77118;BME280;66072;50.238;19.228;2023-02-05T14:29:46;100391.30;;;3.56;51.24
77118;BME280;66072;50.238;19.228;2023-02-05T14:37:52;100398.20;;;1.80;52.58
77118;BME280;66072;50.238;19.228;2023-02-05T14:40:30;100395.52;;;1.49;54.84
77118;BME280;66072;50.238;19.228;2023-02-05T14:43:10;100389.58;;;1.24;55.55
77118;BME280;66072;50.238;19.228;2023-02-05T14:45:47;100390.49;;;1.04;56.40
77118;BME280;66072;50.238;19.228;2023-02-05T14:48:26;100387.83;;;0.84;57.03
77118;BME280;66072;50.238;19.228;2023-02-05T14:51:24;100386.25;;;0.61;56.93
77118;BME280;66072;50.238;19.228;2023-02-05T14:53:59;100387.73;;;0.39;57.96